createdAt,value
2023-05-20T06:35:35.730Z,9.70
2023-05-20T06:36:36.508Z,9.50
2023-05-20T06:37:36.448Z,8.80
2023-05-20T06:38:36.479Z,8.90
2023-05-20T06:39:36.450Z,9.10
2023-05-20T06:40:36.409Z,9.30
2023-05-20T06:41:36.415Z,9.90
2023-05-20T06:42:36.539Z,9.10
2023-05-20T06:43:36.406Z,9.70
2023-05-20T06:44:36.581Z,9.70
2023-05-20T06:45:37.397Z,9.30
2023-05-20T06:46:36.462Z,9.50
2023-05-20T06:47:36.448Z,9.40
2023-05-20T06:48:36.338Z,9.60
2023-05-20T06:49:36.364Z,9.30
2023-05-20T06:50:36.304Z,9.40
2023-05-20T06:51:36.341Z,8.90
2023-05-20T06:52:36.305Z,9.50
2023-05-20T06:53:36.298Z,9.60
2023-05-20T06:54:36.266Z,9.20
2023-05-20T06:55:36.565Z,9.60
2023-05-20T06:56:36.242Z,9.20
2023-05-20T06:57:36.213Z,9.50
2023-05-20T06:58:36.238Z,9.70
2023-05-20T06:59:36.211Z,9.30
2023-05-20T07:00:37.112Z,9.00
2023-05-20T07:01:36.266Z,9.00
2023-05-20T07:02:40.457Z,8.70
2023-05-20T07:03:36.215Z,9.10
2023-05-20T07:04:36.163Z,8.90
2023-05-20T07:05:36.370Z,9.00
2023-05-20T07:06:38.197Z,9.50
2023-05-20T07:07:36.129Z,8.80
2023-05-20T07:08:36.129Z,9.40
2023-05-20T07:09:36.103Z,9.00
2023-05-20T07:10:36.693Z,9.00
2023-05-20T07:11:36.155Z,9.00
2023-05-20T07:12:36.901Z,9.10
2023-05-20T07:13:37.129Z,8.80
2023-05-20T07:15:08.469Z,8.60
2023-05-20T07:15:36.370Z,9.30
2023-05-20T07:17:08.443Z,9.30
2023-05-20T07:17:36.146Z,8.60
2023-05-20T07:18:36.151Z,9.30
2023-05-20T07:19:35.993Z,9.10
2023-05-20T07:20:35.985Z,9.10
2023-05-20T07:21:35.980Z,8.90
2023-05-20T07:22:35.942Z,9.10
2023-05-20T07:23:35.940Z,9.00
2023-05-20T07:24:35.984Z,9.40
2023-05-20T07:25:36.070Z,8.80
2023-05-20T07:26:35.929Z,9.10
2023-05-20T07:27:35.912Z,8.50
2023-05-20T07:28:35.877Z,9.30
2023-05-20T07:29:35.895Z,9.10
2023-05-20T07:30:35.894Z,8.30
2023-05-20T07:31:35.929Z,9.00
2023-05-20T07:32:36.673Z,8.50
2023-05-20T07:33:35.802Z,8.80
2023-05-20T07:34:35.825Z,8.50
2023-05-20T07:35:36.162Z,8.80
2023-05-20T07:36:35.766Z,8.80
2023-05-20T07:37:35.781Z,8.80
2023-05-20T07:38:35.782Z,8.90
2023-05-20T07:39:35.737Z,8.50
2023-05-20T07:40:35.861Z,9.00
2023-05-20T07:41:35.987Z,8.10
2023-05-20T07:42:35.750Z,8.80
2023-05-20T07:43:36.523Z,8.90
2023-05-20T07:44:35.692Z,8.50
2023-05-20T07:45:35.972Z,9.40
2023-05-20T07:46:35.875Z,8.80
2023-05-20T07:47:35.724Z,9.10
2023-05-20T07:48:35.664Z,9.00
2023-05-20T07:49:35.683Z,8.90
2023-05-20T07:50:35.633Z,8.90
2023-05-20T07:51:35.623Z,9.10
2023-05-20T07:52:44.049Z,9.20
2023-05-20T07:53:37.625Z,9.00
2023-05-20T07:54:35.607Z,8.80
2023-05-20T07:55:35.841Z,9.00
2023-05-20T07:56:35.569Z,8.70
2023-05-20T07:57:35.540Z,8.90
2023-05-20T07:58:35.521Z,8.90
2023-05-20T07:59:35.506Z,8.50
2023-05-20T08:00:35.510Z,8.40
2023-05-20T08:01:35.660Z,9.30
2023-05-20T08:02:35.579Z,9.30
2023-05-20T08:03:35.555Z,9.10
2023-05-20T08:04:35.603Z,8.90
2023-05-20T08:05:35.687Z,8.90
2023-05-20T08:06:35.458Z,8.80
2023-05-20T08:07:35.436Z,9.00
2023-05-20T08:08:35.461Z,8.80
2023-05-20T08:09:35.405Z,9.90
2023-05-20T08:10:35.432Z,8.90
2023-05-20T08:11:36.446Z,9.60
2023-05-20T08:12:35.438Z,9.60
2023-05-20T08:13:35.413Z,9.80
2023-05-20T08:14:35.396Z,10.30
2023-05-20T08:15:35.488Z,9.60
2023-05-20T08:16:35.394Z,9.70
2023-05-20T08:17:35.471Z,9.50
2023-05-20T08:18:35.361Z,9.40
2023-05-20T08:19:35.452Z,9.40
2023-05-20T08:20:35.297Z,10.20
2023-05-20T08:21:35.279Z,9.80
2023-05-20T08:22:35.308Z,9.50
2023-05-20T08:23:37.972Z,10.10
2023-05-20T08:24:36.257Z,9.50
2023-05-20T08:25:35.484Z,9.80
2023-05-20T08:26:35.221Z,9.40
2023-05-20T08:27:35.193Z,9.10
2023-05-20T08:28:35.185Z,10.30
2023-05-20T08:29:35.217Z,9.60
2023-05-20T08:30:35.209Z,8.90
2023-05-20T08:31:35.203Z,9.70
2023-05-20T08:32:36.176Z,9.40
2023-05-20T08:33:35.146Z,9.10
2023-05-20T08:34:35.195Z,9.40
2023-05-20T08:35:35.313Z,8.90
2023-05-20T08:36:35.074Z,9.10
2023-05-20T08:37:35.089Z,9.30
2023-05-20T08:38:35.086Z,9.10
2023-05-20T08:39:35.094Z,9.80
2023-05-20T08:40:35.088Z,9.30
2023-05-20T08:41:35.082Z,8.80
2023-05-20T08:42:35.073Z,9.20
2023-05-20T08:43:35.029Z,9.30
2023-05-20T08:44:35.061Z,9.90
2023-05-20T08:45:35.208Z,8.30
2023-05-20T08:46:35.107Z,8.90
2023-05-20T08:47:35.025Z,8.80
2023-05-20T08:48:34.965Z,8.90
2023-05-20T08:49:35.000Z,8.90
2023-05-20T08:50:34.977Z,8.90
2023-05-20T08:51:34.936Z,8.90
2023-05-20T08:52:35.017Z,9.30
2023-05-20T08:53:34.916Z,8.70
2023-05-20T08:54:34.942Z,8.90
2023-05-20T08:55:35.200Z,8.90
2023-05-20T08:56:34.877Z,9.00
2023-05-20T08:57:34.892Z,9.00
2023-05-20T08:58:34.861Z,8.50
2023-05-20T08:59:34.966Z,8.80
2023-05-20T09:00:34.915Z,9.10
2023-05-20T09:01:34.899Z,8.70
2023-05-20T09:02:34.911Z,9.20
2023-05-20T09:03:34.804Z,8.70
2023-05-20T09:04:34.876Z,8.90
2023-05-20T09:05:35.006Z,8.40
2023-05-20T09:06:34.807Z,8.40
2023-05-20T09:07:34.742Z,9.40
2023-05-20T09:08:34.805Z,8.80
2023-05-20T09:09:34.763Z,8.60
2023-05-20T09:10:34.746Z,8.50
2023-05-20T09:11:34.764Z,8.90
2023-05-20T09:12:34.888Z,8.70
2023-05-20T09:13:34.807Z,8.80
2023-05-20T09:14:34.723Z,8.70
2023-05-20T09:15:35.048Z,9.30
2023-05-20T09:16:34.730Z,9.10
2023-05-20T09:17:34.748Z,9.30
2023-05-20T09:18:34.716Z,8.90
2023-05-20T09:19:34.781Z,9.40
2023-05-20T09:20:34.758Z,9.00
2023-05-20T09:21:34.682Z,9.40
2023-05-20T09:22:34.916Z,9.20
2023-05-20T09:23:34.647Z,9.50
2023-05-20T09:24:34.597Z,9.60
2023-05-20T09:25:34.922Z,10.00
2023-05-20T09:26:34.663Z,9.30
2023-05-20T09:27:34.690Z,9.30
2023-05-20T09:28:34.561Z,9.00
2023-05-20T09:29:35.666Z,9.40
2023-05-20T09:30:34.531Z,9.60
2023-05-20T09:31:34.536Z,9.20
2023-05-20T09:32:34.568Z,9.90
2023-05-20T09:33:35.028Z,9.30
2023-05-20T09:34:34.505Z,9.10
2023-05-20T09:35:34.650Z,8.80
2023-05-20T09:36:34.457Z,9.10
2023-05-20T09:37:34.452Z,8.70
2023-05-20T09:38:34.505Z,9.00
2023-05-20T09:39:34.398Z,8.70
2023-05-20T09:40:35.350Z,8.90
2023-05-20T09:41:34.498Z,9.20
2023-05-20T09:42:34.512Z,8.60
2023-05-20T09:43:34.564Z,8.70
2023-05-20T09:44:34.371Z,8.40
2023-05-20T09:45:34.618Z,8.10
2023-05-20T09:46:34.370Z,8.50
2023-05-20T09:47:34.398Z,8.40
2023-05-20T09:48:34.461Z,8.20
2023-05-20T09:49:34.292Z,8.50
2023-05-20T09:50:34.323Z,7.90
2023-05-20T09:51:34.425Z,8.10
2023-05-20T09:52:34.292Z,7.80
2023-05-20T09:53:34.298Z,8.00
2023-05-20T09:54:34.324Z,8.60
2023-05-20T09:55:34.560Z,7.90
2023-05-20T09:56:35.132Z,8.00
2023-05-20T09:57:34.305Z,7.60
2023-05-20T09:58:34.230Z,8.10
2023-05-20T09:59:34.194Z,7.70
2023-05-20T10:00:34.248Z,7.30
2023-05-20T10:01:34.343Z,7.80
2023-05-20T10:02:34.294Z,7.00
2023-05-20T10:03:35.484Z,7.60
2023-05-20T10:04:34.231Z,7.30
2023-05-20T10:05:34.523Z,7.10
2023-05-20T10:06:34.173Z,7.30
2023-05-20T10:07:41.380Z,7.50
2023-05-20T10:08:36.142Z,7.30
2023-05-20T10:09:34.140Z,7.20
2023-05-20T10:10:34.144Z,7.00
2023-05-20T10:11:34.109Z,6.90
2023-05-20T10:12:34.078Z,7.10
2023-05-20T10:13:34.055Z,7.00
2023-05-20T10:14:34.029Z,6.70
2023-05-20T10:15:34.342Z,6.70
2023-05-20T10:16:34.074Z,7.00
2023-05-20T10:17:43.522Z,6.30
2023-05-20T10:18:41.777Z,6.90
2023-05-20T10:19:36.798Z,6.90
2023-05-20T10:20:34.051Z,7.10
2023-05-20T10:22:09.279Z,7.00
2023-05-20T10:23:08.670Z,7.60
2023-05-20T10:23:35.121Z,7.30
2023-05-20T10:25:07.382Z,6.90
2023-05-20T10:25:34.339Z,7.30
2023-05-20T10:26:33.993Z,7.00
2023-05-20T10:27:33.917Z,7.20
2023-05-20T10:28:33.955Z,7.00
2023-05-20T10:29:33.880Z,7.00
2023-05-20T10:30:33.960Z,7.00
2023-05-20T10:31:33.931Z,6.90
2023-05-20T10:32:33.908Z,6.80
2023-05-20T10:33:33.882Z,7.10
2023-05-20T10:34:34.822Z,6.80
2023-05-20T10:35:33.838Z,7.20
2023-05-20T10:36:33.779Z,6.90
2023-05-20T10:37:34.088Z,6.70
2023-05-20T10:38:33.803Z,7.50
2023-05-20T10:39:33.771Z,7.10
2023-05-20T10:40:34.956Z,7.10
2023-05-20T10:41:33.745Z,7.20
2023-05-20T10:42:34.825Z,8.00
2023-05-20T10:43:33.740Z,7.60
2023-05-20T10:44:34.757Z,6.80
2023-05-20T10:45:33.778Z,7.00
2023-05-20T10:46:44.176Z,7.30
2023-05-20T10:47:36.003Z,7.50
2023-05-20T10:48:33.783Z,7.70
2023-05-20T10:49:33.702Z,7.00
2023-05-20T10:50:33.897Z,7.60
2023-05-20T10:51:33.713Z,7.20
2023-05-20T10:52:33.630Z,8.00
2023-05-20T10:53:34.702Z,7.40
2023-05-20T10:54:34.586Z,7.40
2023-05-20T10:55:33.935Z,7.50
2023-05-20T10:56:33.532Z,7.50
2023-05-20T10:57:33.672Z,7.60
2023-05-20T10:58:33.788Z,7.90
2023-05-20T10:59:33.852Z,7.80
2023-05-20T11:00:33.984Z,7.80
2023-05-20T11:01:33.621Z,7.60
2023-05-20T11:02:33.646Z,7.20
2023-05-20T11:03:33.574Z,7.20
2023-05-20T11:04:33.643Z,7.70
2023-05-20T11:05:33.508Z,7.30
2023-05-20T11:06:33.466Z,7.20
2023-05-20T11:07:33.616Z,8.00
2023-05-20T11:08:33.453Z,7.10
2023-05-20T11:09:33.419Z,7.30
2023-05-20T11:10:33.546Z,7.50
2023-05-20T11:11:33.393Z,7.60
2023-05-20T11:12:33.416Z,7.50
2023-05-20T11:13:34.122Z,7.10
2023-05-20T11:14:33.385Z,7.80
2023-05-20T11:15:33.501Z,7.10
2023-05-20T11:16:33.398Z,7.10
2023-05-20T11:17:33.672Z,7.60
2023-05-20T11:18:33.373Z,7.40
2023-05-20T11:19:33.395Z,7.10
2023-05-20T11:20:33.529Z,7.40
2023-05-20T11:21:33.263Z,7.20
2023-05-20T11:22:34.295Z,7.50
2023-05-20T11:23:33.290Z,7.20
2023-05-20T11:24:33.270Z,7.20
2023-05-20T11:25:33.549Z,7.20
2023-05-20T11:26:33.307Z,7.10
2023-05-20T11:27:33.627Z,6.90
2023-05-20T11:28:33.282Z,7.20
2023-05-20T11:29:33.327Z,7.20
2023-05-20T11:30:33.557Z,7.40
2023-05-20T11:31:37.056Z,7.20
2023-05-20T11:32:34.180Z,7.70
2023-05-20T11:33:33.128Z,8.00
2023-05-20T11:34:33.167Z,7.00
2023-05-20T11:35:33.204Z,7.20
2023-05-20T11:36:33.140Z,7.40
2023-05-20T11:37:33.150Z,7.50
2023-05-20T11:38:33.147Z,7.50
2023-05-20T11:39:33.122Z,7.20
2023-05-20T11:40:42.601Z,7.20
2023-05-20T11:41:35.101Z,7.30
2023-05-20T11:42:33.060Z,7.20
2023-05-20T11:43:33.126Z,7.20
2023-05-20T11:44:33.117Z,7.70
2023-05-20T11:45:33.046Z,7.60
2023-05-20T11:46:33.106Z,7.30
2023-05-20T11:47:33.160Z,7.10
2023-05-20T11:48:33.042Z,7.60
2023-05-20T11:49:32.999Z,7.50
2023-05-20T11:50:33.290Z,7.00
2023-05-20T11:51:32.985Z,7.30
2023-05-20T11:52:32.942Z,7.20
2023-05-20T11:53:33.010Z,7.30
2023-05-20T11:54:32.917Z,7.60
2023-05-20T11:55:32.953Z,7.50
2023-05-20T11:56:32.926Z,7.70
2023-05-20T11:57:32.907Z,7.40
2023-05-20T11:58:32.954Z,7.50
2023-05-20T11:59:33.018Z,7.30
2023-05-20T12:00:46.774Z,6.70
2023-05-20T12:01:34.836Z,7.30
2023-05-20T12:02:32.924Z,7.10
2023-05-20T12:03:33.389Z,6.80
2023-05-20T12:04:32.883Z,6.80
2023-05-20T12:05:32.797Z,7.10
2023-05-20T12:06:32.940Z,7.00
2023-05-20T12:07:32.773Z,6.80
2023-05-20T12:08:33.801Z,6.80
2023-05-20T12:09:32.829Z,6.80
2023-05-20T12:10:32.888Z,6.50
2023-05-20T12:11:32.896Z,6.30
2023-05-20T12:12:32.845Z,7.30
2023-05-20T12:13:34.957Z,6.60
2023-05-20T12:14:33.261Z,6.70
2023-05-20T12:15:32.755Z,6.70
2023-05-20T12:16:32.906Z,6.50
2023-05-20T12:17:32.727Z,6.70
2023-05-20T12:18:32.711Z,6.40
2023-05-20T12:19:33.797Z,7.30
2023-05-20T12:20:33.399Z,7.20
2023-05-20T12:21:32.598Z,7.20
2023-05-20T12:22:32.665Z,6.90
2023-05-20T12:23:32.841Z,6.90
2023-05-20T12:24:32.797Z,7.00
2023-05-20T12:25:32.721Z,6.90
2023-05-20T12:26:32.583Z,7.10
2023-05-20T12:27:32.989Z,7.00
2023-05-20T12:28:32.596Z,6.70
2023-05-20T12:29:32.575Z,6.60
2023-05-20T12:30:32.669Z,7.00
2023-05-20T12:31:34.635Z,6.70
2023-05-20T12:32:33.577Z,7.10
2023-05-20T12:33:32.516Z,7.30
2023-05-20T12:34:32.538Z,7.40
2023-05-20T12:35:32.468Z,7.40
2023-05-20T12:36:32.467Z,7.50
2023-05-20T12:37:32.750Z,7.80
2023-05-20T12:38:32.568Z,7.10
2023-05-20T12:39:32.466Z,7.50
2023-05-20T12:40:32.549Z,7.40
2023-05-20T12:41:32.537Z,7.40
2023-05-20T12:42:34.313Z,7.70
2023-05-20T12:43:32.861Z,7.40
2023-05-20T12:44:32.342Z,7.40
2023-05-20T12:45:32.366Z,7.40
2023-05-20T12:46:32.365Z,6.80
2023-05-20T12:47:32.356Z,7.20
2023-05-20T12:48:32.344Z,7.00
2023-05-20T12:49:32.400Z,6.90
2023-05-20T12:50:32.333Z,7.10
2023-05-20T12:51:32.292Z,7.40
2023-05-20T12:52:32.511Z,7.50
2023-05-20T12:53:34.383Z,7.30
2023-05-20T12:54:33.102Z,7.60
2023-05-20T12:55:32.337Z,7.80
2023-05-20T12:56:32.331Z,7.90
2023-05-20T12:57:32.217Z,7.90
2023-05-20T12:58:32.744Z,7.70
2023-05-20T12:59:32.198Z,7.70
2023-05-20T13:00:32.171Z,8.10
2023-05-20T13:01:32.335Z,8.80
2023-05-20T13:02:32.231Z,8.60
2023-05-20T13:03:32.205Z,8.70
2023-05-20T13:04:32.164Z,7.80
2023-05-20T13:05:32.128Z,8.10
2023-05-20T13:06:32.133Z,7.90
2023-05-20T13:07:32.091Z,8.70
2023-05-20T13:08:32.149Z,8.50
2023-05-20T13:09:32.073Z,8.60
2023-05-20T13:10:32.132Z,8.20
2023-05-20T13:11:32.106Z,8.70
2023-05-20T13:12:33.005Z,9.00
2023-05-20T13:13:32.057Z,8.70
2023-05-20T13:14:32.785Z,9.00
2023-05-20T13:15:32.065Z,8.40
2023-05-20T13:16:31.992Z,8.10
2023-05-20T13:17:32.185Z,8.40
2023-05-20T13:18:31.964Z,9.10
2023-05-20T13:19:32.086Z,9.00
2023-05-20T13:20:32.067Z,9.50
2023-05-20T13:21:31.937Z,8.90
2023-05-20T13:22:31.928Z,8.80
2023-05-20T13:23:31.993Z,8.60
2023-05-20T13:24:31.934Z,8.30
2023-05-20T13:25:31.956Z,9.60
2023-05-20T13:26:31.982Z,9.50
2023-05-20T13:27:31.834Z,8.90
2023-05-20T13:28:31.826Z,9.60
2023-05-20T13:29:31.933Z,9.60
2023-05-20T13:30:31.852Z,10.10
2023-05-20T13:31:31.897Z,10.20
2023-05-20T13:32:31.823Z,10.20
2023-05-20T13:33:32.695Z,10.30
2023-05-20T13:34:31.771Z,10.20
2023-05-20T13:35:31.952Z,10.00
2023-05-20T13:36:31.769Z,10.00
2023-05-20T13:37:31.924Z,10.10
2023-05-20T13:38:31.782Z,9.40
2023-05-20T13:39:31.759Z,9.70
2023-05-20T13:40:31.837Z,10.10
2023-05-20T13:41:31.709Z,9.50
2023-05-20T13:42:31.867Z,9.30
2023-05-20T13:43:31.689Z,10.00
2023-05-20T13:44:32.668Z,9.70
2023-05-20T13:45:31.679Z,10.00
2023-05-20T13:46:31.951Z,9.80
2023-05-20T13:47:31.673Z,10.00
2023-05-20T13:48:31.732Z,9.70
2023-05-20T13:49:31.623Z,9.90
2023-05-20T13:50:31.649Z,10.30
2023-05-20T13:51:31.667Z,10.00
2023-05-20T13:52:31.674Z,10.20
2023-05-20T13:53:31.653Z,10.10
2023-05-20T13:54:31.596Z,10.00
2023-05-20T13:55:32.546Z,9.70
2023-05-20T13:56:31.592Z,10.00
2023-05-20T13:57:31.549Z,10.20
2023-05-20T13:58:31.659Z,10.10
2023-05-20T13:59:31.662Z,10.60
2023-05-20T14:00:31.486Z,10.00
2023-05-20T14:01:31.689Z,10.20
2023-05-20T14:02:31.668Z,9.70
2023-05-20T14:03:31.574Z,10.30
2023-05-20T14:04:31.567Z,10.50
2023-05-20T14:05:31.442Z,10.30
2023-05-20T14:06:31.421Z,9.50
2023-05-20T14:07:31.564Z,9.70
2023-05-20T14:08:31.441Z,9.70
2023-05-20T14:09:32.609Z,9.70
2023-05-20T14:10:31.438Z,9.30
2023-05-20T14:11:31.388Z,9.50
2023-05-20T14:12:32.403Z,10.50
2023-05-20T14:13:31.369Z,10.30
2023-05-20T14:14:31.399Z,10.00
2023-05-20T14:15:31.382Z,10.50
2023-05-20T14:16:31.490Z,10.80
2023-05-20T14:17:31.475Z,10.60
2023-05-20T14:18:31.398Z,9.90
2023-05-20T14:19:32.408Z,10.30
2023-05-20T14:20:31.510Z,10.10
2023-05-20T14:21:31.457Z,10.20
2023-05-20T14:22:31.316Z,10.60
2023-05-20T14:23:31.268Z,10.10
2023-05-20T14:24:31.391Z,10.80
2023-05-20T14:25:31.220Z,10.20
2023-05-20T14:26:31.264Z,10.10
2023-05-20T14:27:32.191Z,10.30
2023-05-20T14:28:31.938Z,10.70
2023-05-20T14:29:31.360Z,9.70
2023-05-20T14:30:31.178Z,10.00
2023-05-20T14:31:31.262Z,10.80
2023-05-20T14:32:31.208Z,9.70
2023-05-20T14:33:31.112Z,10.30
2023-05-20T14:34:31.104Z,10.60
2023-05-20T14:35:31.160Z,10.10
2023-05-20T14:36:31.086Z,10.60
2023-05-20T14:37:31.052Z,10.20
2023-05-20T14:38:31.133Z,10.50
2023-05-20T14:39:31.087Z,10.80
2023-05-20T14:40:32.280Z,11.30
2023-05-20T14:41:31.049Z,10.50
2023-05-20T14:42:31.178Z,10.30
2023-05-20T14:43:31.020Z,10.60
2023-05-20T14:44:32.616Z,10.50
2023-05-20T14:45:31.088Z,10.60
2023-05-20T14:46:31.343Z,10.40
2023-05-20T14:47:31.037Z,10.80
2023-05-20T14:48:31.057Z,10.90
2023-05-20T14:49:31.044Z,11.10
2023-05-20T14:50:30.973Z,11.50
2023-05-20T14:51:31.008Z,11.00
2023-05-20T14:52:30.966Z,11.00
2023-05-20T14:53:30.892Z,11.20
2023-05-20T14:54:31.086Z,11.50
2023-05-20T14:55:30.987Z,11.30
2023-05-20T14:56:30.994Z,11.40
2023-05-20T14:57:30.921Z,11.60
2023-05-20T14:58:31.277Z,11.20
2023-05-20T14:59:30.859Z,11.00
2023-05-20T15:00:30.891Z,11.60
2023-05-20T15:01:30.872Z,11.00
2023-05-20T15:02:31.291Z,11.70
2023-05-20T15:03:30.922Z,11.30
2023-05-20T15:04:30.839Z,11.20
2023-05-20T15:05:30.742Z,12.50
2023-05-20T15:06:30.817Z,11.70
2023-05-20T15:07:33.268Z,11.70
2023-05-20T15:08:30.930Z,11.80
2023-05-20T15:09:31.026Z,12.10
2023-05-20T15:10:33.629Z,11.70
2023-05-20T15:11:30.742Z,12.00
2023-05-20T15:12:30.846Z,12.40
2023-05-20T15:13:30.806Z,11.70
2023-05-20T15:14:30.749Z,11.60
2023-05-20T15:15:31.897Z,11.50
2023-05-20T15:16:30.680Z,11.70
2023-05-20T15:17:30.695Z,11.60
2023-05-20T15:18:30.613Z,11.80
2023-05-20T15:19:30.816Z,11.70
2023-05-20T15:20:30.675Z,12.10
2023-05-20T15:21:30.601Z,12.30
2023-05-20T15:22:30.612Z,11.70
2023-05-20T15:23:30.934Z,12.10
2023-05-20T15:24:30.552Z,11.60
2023-05-20T15:25:30.538Z,12.20
2023-05-20T15:26:30.912Z,12.40
2023-05-20T15:27:30.595Z,12.20
2023-05-20T15:28:30.668Z,11.80
2023-05-20T15:29:30.495Z,11.50
2023-05-20T15:30:30.563Z,12.10
2023-05-20T15:31:30.521Z,11.60
2023-05-20T15:32:32.103Z,11.60
2023-05-20T15:33:30.505Z,10.80
2023-05-20T15:34:30.429Z,11.60
2023-05-20T15:35:30.438Z,11.00
2023-05-20T15:36:30.616Z,10.90
2023-05-20T15:37:30.417Z,11.20
2023-05-20T15:38:30.451Z,11.30
2023-05-20T15:39:30.414Z,11.10
2023-05-20T15:40:30.377Z,11.90
2023-05-20T15:41:30.386Z,11.10
2023-05-20T15:42:30.340Z,11.50
2023-05-20T15:43:30.315Z,11.50
2023-05-20T15:44:30.545Z,11.60
2023-05-20T15:45:30.296Z,11.00
2023-05-20T15:46:32.413Z,11.30
2023-05-20T15:47:30.451Z,12.00
2023-05-20T15:48:30.404Z,11.90
2023-05-20T15:49:31.356Z,11.60
2023-05-20T15:50:30.233Z,11.60
2023-05-20T15:51:30.260Z,11.90
2023-05-20T15:52:30.326Z,11.80
2023-05-20T15:53:31.209Z,11.50
2023-05-20T15:54:30.233Z,11.50
2023-05-20T15:56:02.797Z,11.60
2023-05-20T15:56:30.306Z,11.70
2023-05-20T15:57:31.214Z,11.50
2023-05-20T15:58:30.244Z,12.40
2023-05-20T15:59:30.271Z,11.70
2023-05-20T16:00:30.233Z,11.70
2023-05-20T16:01:30.410Z,11.80
2023-05-20T16:02:30.378Z,11.60
2023-05-20T16:03:30.220Z,12.70
2023-05-20T16:04:30.302Z,11.20
2023-05-20T16:05:30.140Z,11.60
2023-05-20T16:06:30.130Z,11.60
2023-05-20T16:07:30.063Z,11.90
2023-05-20T16:08:30.094Z,11.90
2023-05-20T16:09:30.239Z,12.10
2023-05-20T16:10:30.083Z,11.60
2023-05-20T16:11:30.044Z,11.70
2023-05-20T16:12:30.097Z,11.90
2023-05-20T16:13:30.105Z,12.30
2023-05-20T16:14:30.014Z,12.60
2023-05-20T16:15:30.036Z,13.50
2023-05-20T16:16:29.995Z,12.80
2023-05-20T16:17:29.992Z,13.40
2023-05-20T16:18:29.940Z,13.40
2023-05-20T16:19:29.998Z,12.70
2023-05-20T16:20:29.992Z,12.10
2023-05-20T16:21:29.957Z,12.00
2023-05-20T16:22:29.892Z,12.30
2023-05-20T16:23:29.901Z,11.60
2023-05-20T16:24:30.713Z,12.30
2023-05-20T16:25:29.865Z,12.40
2023-05-20T16:26:29.854Z,12.50
2023-05-20T16:27:29.866Z,12.20
2023-05-20T16:28:29.837Z,12.60
2023-05-20T16:29:29.825Z,12.80
2023-05-20T16:30:29.830Z,12.40
2023-05-20T16:31:29.811Z,13.10
2023-05-20T16:32:29.790Z,13.30
2023-05-20T16:33:29.770Z,13.80
2023-05-20T16:34:29.789Z,13.40
2023-05-20T16:35:29.760Z,13.50
2023-05-20T16:36:29.740Z,13.00
2023-05-20T16:37:29.791Z,13.70
2023-05-20T16:38:29.709Z,13.60
2023-05-20T16:39:29.741Z,14.30
2023-05-20T16:40:29.677Z,14.00
2023-05-20T16:41:29.657Z,13.80
2023-05-20T16:42:29.674Z,13.50
2023-05-20T16:43:29.738Z,16.20
2023-05-20T16:44:29.652Z,14.00
2023-05-20T16:45:29.755Z,16.90
2023-05-20T16:46:29.629Z,13.90
2023-05-20T16:47:29.658Z,13.50
2023-05-20T16:48:29.685Z,13.40
2023-05-20T16:49:29.577Z,15.40
2023-05-20T16:50:29.576Z,14.30
2023-05-20T16:51:29.585Z,14.30
2023-05-20T16:52:29.661Z,14.10
2023-05-20T16:53:29.539Z,13.40
2023-05-20T16:54:30.348Z,13.00
2023-05-20T16:55:29.528Z,13.30
2023-05-20T16:56:29.528Z,12.90
2023-05-20T16:57:29.536Z,13.20
2023-05-20T16:58:29.511Z,13.30
2023-05-20T16:59:29.673Z,14.20
2023-05-20T17:00:29.510Z,13.70
2023-05-20T17:01:31.398Z,13.70
2023-05-20T17:02:30.153Z,13.80
2023-05-20T17:03:29.470Z,14.20
2023-05-20T17:04:29.540Z,13.30
2023-05-20T17:05:30.227Z,13.70
2023-05-20T17:06:29.409Z,13.70
2023-05-20T17:07:29.528Z,13.70
2023-05-20T17:08:29.366Z,13.70
2023-05-20T17:09:29.374Z,14.30
2023-05-20T17:10:29.348Z,13.60
2023-05-20T17:11:29.319Z,14.30
2023-05-20T17:12:29.347Z,13.80
2023-05-20T17:13:29.319Z,14.40
2023-05-20T17:14:29.302Z,14.00
2023-05-20T17:16:03.432Z,13.30
2023-05-20T17:16:29.344Z,13.70
2023-05-20T17:17:29.280Z,14.30
2023-05-20T17:18:29.274Z,13.60
2023-05-20T17:19:29.245Z,14.20
2023-05-20T17:20:29.250Z,13.50
2023-05-20T17:21:29.350Z,13.50
2023-05-20T17:22:29.268Z,13.70
2023-05-20T17:23:29.214Z,14.80
2023-05-20T17:24:29.371Z,13.50
2023-05-20T17:25:29.196Z,13.90
2023-05-20T17:26:29.181Z,14.20
2023-05-20T17:27:29.197Z,14.00
2023-05-20T17:28:29.125Z,13.50
2023-05-20T17:29:29.146Z,14.20
2023-05-20T17:30:29.169Z,13.60
2023-05-20T17:31:29.132Z,13.50
2023-05-20T17:32:29.215Z,14.60
2023-05-20T17:33:29.222Z,14.00
2023-05-20T17:34:29.230Z,13.90
2023-05-20T17:35:29.073Z,13.60
2023-05-20T17:36:29.067Z,13.80
2023-05-20T17:37:29.139Z,13.60
2023-05-20T17:38:29.043Z,14.20
2023-05-20T17:39:29.012Z,13.70
2023-05-20T17:40:29.089Z,14.30
2023-05-20T17:41:28.993Z,13.70
2023-05-20T17:42:29.091Z,14.10
2023-05-20T17:43:29.777Z,13.60
2023-05-20T17:44:28.974Z,13.60
2023-05-20T17:45:28.955Z,13.90
2023-05-20T17:46:29.014Z,13.60
2023-05-20T17:47:28.981Z,13.60
2023-05-20T17:48:28.951Z,13.40
2023-05-20T17:49:28.954Z,13.90
2023-05-20T17:50:28.923Z,13.90
2023-05-20T17:51:29.778Z,13.40
2023-05-20T17:52:29.794Z,13.20
2023-05-20T17:53:28.899Z,14.20
2023-05-20T17:54:28.873Z,14.70
2023-05-20T17:55:28.845Z,13.50
2023-05-20T17:56:28.850Z,13.80
2023-05-20T17:57:28.870Z,14.50
2023-05-20T17:58:28.811Z,13.30
2023-05-20T17:59:28.857Z,13.50
2023-05-20T18:00:28.798Z,12.80
2023-05-20T18:01:28.850Z,13.50
2023-05-20T18:02:28.843Z,13.20
2023-05-20T18:03:28.816Z,13.20
2023-05-20T18:04:28.736Z,12.90
2023-05-20T18:05:28.892Z,13.80
2023-05-20T18:06:28.791Z,12.80
2023-05-20T18:07:28.745Z,13.30
2023-05-20T18:08:28.727Z,12.70
2023-05-20T18:09:28.672Z,14.10
2023-05-20T18:10:28.780Z,12.90
2023-05-20T18:11:28.889Z,13.10
2023-05-20T18:12:28.767Z,12.50
2023-05-20T18:13:28.686Z,13.90
2023-05-20T18:14:28.844Z,13.00
2023-05-20T18:15:28.665Z,12.80
2023-05-20T18:16:28.691Z,13.30
2023-05-20T18:17:30.829Z,13.20
2023-05-20T18:18:28.660Z,13.10
2023-05-20T18:19:28.729Z,13.00
2023-05-20T18:20:28.587Z,13.50
2023-05-20T18:21:28.632Z,13.60
2023-05-20T18:22:28.558Z,13.20
2023-05-20T18:23:28.575Z,12.60
2023-05-20T18:24:28.574Z,13.20
2023-05-20T18:25:28.566Z,12.50
2023-05-20T18:26:28.524Z,13.60
2023-05-20T18:27:29.516Z,13.60
2023-05-20T18:28:28.499Z,13.40
2023-05-20T18:29:28.681Z,13.20
2023-05-20T18:30:28.562Z,13.10
2023-05-20T18:31:28.492Z,13.40
2023-05-20T18:32:28.461Z,13.10
2023-05-20T18:33:28.461Z,14.60
2023-05-20T18:34:28.482Z,13.60
2023-05-20T18:35:28.404Z,15.00
2023-05-20T18:36:28.407Z,16.10
2023-05-20T18:37:29.300Z,14.90
2023-05-20T18:38:28.447Z,14.80
2023-05-20T18:39:28.399Z,14.30
2023-05-20T18:40:28.397Z,14.40
2023-05-20T18:41:43.143Z,14.20
2023-05-20T18:42:30.345Z,14.10
2023-05-20T18:43:28.310Z,14.20
2023-05-20T18:44:28.319Z,14.30
2023-05-20T18:45:28.369Z,14.20
2023-05-20T18:46:28.554Z,13.90
2023-05-20T18:47:28.343Z,14.20
2023-05-20T18:48:28.388Z,14.00
2023-05-20T18:49:28.279Z,13.90
2023-05-20T18:50:28.290Z,14.20
2023-05-20T18:51:28.253Z,14.20
2023-05-20T18:52:28.406Z,13.30
2023-05-20T18:53:28.276Z,14.00
2023-05-20T18:54:29.227Z,13.90
2023-05-20T18:55:28.258Z,13.90
2023-05-20T18:56:28.452Z,14.30
2023-05-20T18:57:28.199Z,13.90
2023-05-20T18:58:28.175Z,13.40
2023-05-20T18:59:28.172Z,13.80
2023-05-20T19:00:28.136Z,13.60
2023-05-20T19:01:28.176Z,14.00
2023-05-20T19:02:28.140Z,14.00
2023-05-20T19:03:28.104Z,13.90
2023-05-20T19:04:28.096Z,14.00
2023-05-20T19:05:28.167Z,13.50
2023-05-20T19:06:28.134Z,14.00
2023-05-20T19:07:28.108Z,13.40
2023-05-20T19:08:28.132Z,13.40
2023-05-20T19:09:28.117Z,13.20
2023-05-20T19:10:29.371Z,13.50
2023-05-20T19:11:28.054Z,13.00
2023-05-20T19:12:28.016Z,13.00
2023-05-20T19:13:28.014Z,12.80
2023-05-20T19:14:28.058Z,13.30
2023-05-20T19:15:28.005Z,13.10
2023-05-20T19:16:28.052Z,13.20
2023-05-20T19:17:28.022Z,13.00
2023-05-20T19:18:28.033Z,12.90
2023-05-20T19:19:28.101Z,13.30
2023-05-20T19:20:28.958Z,12.90
2023-05-20T19:21:28.028Z,13.60
2023-05-20T19:22:27.889Z,13.80
2023-05-20T19:23:27.883Z,13.10
2023-05-20T19:24:27.878Z,13.40
2023-05-20T19:25:27.934Z,13.30
2023-05-20T19:26:27.858Z,13.40
2023-05-20T19:27:27.855Z,13.10
2023-05-20T19:28:27.845Z,13.40
2023-05-20T19:29:27.869Z,13.90
2023-05-20T19:30:27.848Z,12.80
2023-05-20T19:31:27.872Z,12.50
2023-05-20T19:32:27.767Z,13.60
2023-05-20T19:33:27.807Z,12.70
2023-05-20T19:34:27.795Z,13.30
2023-05-20T19:35:27.754Z,15.20
2023-05-20T19:36:27.733Z,13.50
2023-05-20T19:37:27.734Z,12.80
2023-05-20T19:38:27.683Z,12.30
2023-05-20T19:39:27.858Z,13.70
2023-05-20T19:40:27.759Z,13.00
2023-05-20T19:41:27.702Z,13.10